createdAt,value
2018-05-04T00:00:00.880Z,3.23
2018-05-04T00:02:29.155Z,3.30
2018-05-04T00:04:57.427Z,2.97
2018-05-04T00:07:25.712Z,3.53
2018-05-04T00:09:54.812Z,3.33
2018-05-04T00:12:24.930Z,4.63
2018-05-04T00:14:53.979Z,4.00
2018-05-04T00:17:23.205Z,3.90
2018-05-04T00:19:51.516Z,4.10
2018-05-04T00:22:20.551Z,3.40
2018-05-04T00:24:48.811Z,3.97
2018-05-04T00:27:17.102Z,3.47
2018-05-04T00:29:45.404Z,3.53
2018-05-04T00:32:13.696Z,3.07
2018-05-04T00:34:42.799Z,3.77
2018-05-04T00:37:11.143Z,3.83
2018-05-04T00:39:39.435Z,3.60
2018-05-04T00:42:07.729Z,4.33
2018-05-04T00:44:37.721Z,4.60
2018-05-04T00:47:06.021Z,3.77
2018-05-04T00:49:35.097Z,3.47
2018-05-04T00:52:03.350Z,4.10
2018-05-04T00:54:31.630Z,3.70
2018-05-04T00:56:59.908Z,4.20
2018-05-04T00:59:28.305Z,5.20
2018-05-04T01:01:56.601Z,4.90
2018-05-04T01:04:24.857Z,3.90
2018-05-04T01:06:53.133Z,3.83
2018-05-04T01:09:21.429Z,3.70
2018-05-04T01:11:49.808Z,3.43
2018-05-04T01:14:18.884Z,4.20
2018-05-04T01:16:47.161Z,3.53
2018-05-04T01:19:15.438Z,4.33
2018-05-04T01:21:43.735Z,5.10
2018-05-04T01:24:12.047Z,4.60
2018-05-04T01:26:40.380Z,3.87
2018-05-04T01:29:08.673Z,4.97
2018-05-04T01:31:37.703Z,5.07
2018-05-04T01:34:07.146Z,4.60
2018-05-04T01:36:35.427Z,6.40
2018-05-04T01:39:03.723Z,4.60
2018-05-04T01:41:32.754Z,5.50
2018-05-04T01:44:01.003Z,6.30
2018-05-04T01:46:30.070Z,4.27
2018-05-04T01:48:58.422Z,3.97
2018-05-04T01:51:26.704Z,4.50
2018-05-04T01:53:54.991Z,4.50
2018-05-04T01:56:23.275Z,4.30
2018-05-04T01:58:51.545Z,4.70
2018-05-04T02:01:19.852Z,4.53
2018-05-04T02:03:48.159Z,5.00
2018-05-04T02:06:16.968Z,5.23
2018-05-04T02:08:45.256Z,6.03
2018-05-04T02:11:13.511Z,5.57
2018-05-04T02:13:41.796Z,4.87
2018-05-04T02:16:10.914Z,5.13
2018-05-04T02:18:39.186Z,4.23
2018-05-04T02:21:07.465Z,5.73
2018-05-04T02:23:35.844Z,5.40
2018-05-04T02:26:04.152Z,5.23
2018-05-04T02:28:32.432Z,4.60
2018-05-04T02:31:00.719Z,5.13
2018-05-04T02:33:29.024Z,6.20
2018-05-04T02:35:57.311Z,5.83
2018-05-04T02:38:25.599Z,6.73
2018-05-04T02:40:53.867Z,5.80
2018-05-04T02:43:22.152Z,5.03
2018-05-04T02:45:50.413Z,4.40
2018-05-04T02:48:18.669Z,5.00
2018-05-04T02:50:46.943Z,5.27
2018-05-04T02:53:15.196Z,5.10
2018-05-04T02:55:44.234Z,4.73
2018-05-04T02:58:12.499Z,5.10
2018-05-04T03:00:40.779Z,4.80
2018-05-04T03:03:09.023Z,4.83
2018-05-04T03:05:37.292Z,4.17
2018-05-04T03:08:06.333Z,4.87
2018-05-04T03:10:34.601Z,4.33
2018-05-04T03:13:02.892Z,4.50
2018-05-04T03:15:31.146Z,4.80
2018-05-04T03:17:59.415Z,4.47
2018-05-04T03:20:27.672Z,4.43
2018-05-04T03:22:56.012Z,5.00
2018-05-04T03:25:24.300Z,4.40
2018-05-04T03:27:53.346Z,5.80
2018-05-04T03:30:21.609Z,4.50
2018-05-04T03:32:50.719Z,4.53
2018-05-04T03:37:54.355Z,6.10
2018-05-04T03:40:24.127Z,5.50
2018-05-04T03:42:52.482Z,4.80
2018-05-04T03:45:20.734Z,5.27
2018-05-04T03:47:49.903Z,5.70
2018-05-04T03:50:18.182Z,4.40
2018-05-04T03:52:46.474Z,5.10
2018-05-04T03:55:14.752Z,4.70
2018-05-04T03:57:56.591Z,4.90
2018-05-04T04:00:36.674Z,5.00
2018-05-04T04:03:16.696Z,4.03
2018-05-04T04:05:45.735Z,5.30
2018-05-04T04:08:14.032Z,4.20
2018-05-04T04:10:42.296Z,3.90
2018-05-04T04:13:10.571Z,4.90
2018-05-04T04:15:38.828Z,4.50
2018-05-04T04:18:07.136Z,4.13
2018-05-04T04:20:36.218Z,3.40
2018-05-04T04:23:04.484Z,4.90
2018-05-04T04:25:32.813Z,4.10
2018-05-04T04:28:01.078Z,4.00
2018-05-04T04:30:29.364Z,4.57
2018-05-04T04:32:58.407Z,3.90
2018-05-04T04:35:26.712Z,3.07
2018-05-04T04:37:55.750Z,3.87
2018-05-04T04:40:24.024Z,4.67
2018-05-04T04:42:52.299Z,3.50
2018-05-04T04:45:20.575Z,4.40
2018-05-04T04:47:48.875Z,3.57
2018-05-04T04:50:17.160Z,4.60
2018-05-04T04:52:45.454Z,4.83
2018-05-04T04:55:13.724Z,6.33
2018-05-04T04:57:42.010Z,5.10
2018-05-04T05:00:10.276Z,4.47
2018-05-04T05:02:38.537Z,5.37
2018-05-04T05:05:06.814Z,3.20
2018-05-04T05:07:35.104Z,4.40
2018-05-04T05:10:03.494Z,4.30
2018-05-04T05:12:33.259Z,3.60
2018-05-04T05:15:01.537Z,4.27
2018-05-04T05:17:29.836Z,4.30
2018-05-04T05:19:58.118Z,3.17
2018-05-04T05:22:26.399Z,3.83
2018-05-04T05:24:54.802Z,3.63
2018-05-04T05:27:23.196Z,4.37
2018-05-04T05:29:51.487Z,4.07
2018-05-04T05:32:20.414Z,4.50
2018-05-04T05:34:48.687Z,4.30
2018-05-04T05:37:16.961Z,4.50
2018-05-04T05:39:45.248Z,4.53
2018-05-04T05:42:13.529Z,4.27
2018-05-04T05:44:41.795Z,4.10
2018-05-04T05:47:10.103Z,3.50
2018-05-04T05:49:40.710Z,3.00
2018-05-04T05:52:09.012Z,3.73
2018-05-04T05:54:37.848Z,4.00
2018-05-04T05:57:06.860Z,4.73
2018-05-04T05:59:35.139Z,4.13
2018-05-04T06:02:05.151Z,4.50
2018-05-04T06:04:34.948Z,3.90
2018-05-04T06:07:03.210Z,3.80
2018-05-04T06:09:31.526Z,3.97
2018-05-04T06:11:59.809Z,4.03
2018-05-04T06:14:28.088Z,4.30
2018-05-04T06:16:56.394Z,4.57
2018-05-04T06:19:24.774Z,4.00
2018-05-04T06:21:54.019Z,4.97
2018-05-04T06:24:22.323Z,4.03
2018-05-04T06:26:50.584Z,4.23
2018-05-04T06:29:18.956Z,3.90
2018-05-04T06:31:47.227Z,3.57
2018-05-04T06:34:15.549Z,3.17
2018-05-04T06:36:43.867Z,3.80
2018-05-04T06:39:12.164Z,3.73
2018-05-04T06:41:40.419Z,4.23
2018-05-04T06:44:08.731Z,4.57
2018-05-04T06:46:36.991Z,4.10
2018-05-04T06:49:05.327Z,3.80
2018-05-04T06:51:33.599Z,3.57
2018-05-04T06:54:01.876Z,3.80
2018-05-04T06:56:30.167Z,4.13
2018-05-04T06:58:58.427Z,3.40
2018-05-04T07:01:26.726Z,3.83
2018-05-04T07:03:54.997Z,3.03
2018-05-04T07:06:23.371Z,3.67
2018-05-04T07:08:51.717Z,3.07
2018-05-04T07:11:19.959Z,3.57
2018-05-04T07:13:48.339Z,3.73
2018-05-04T07:16:16.667Z,2.90
2018-05-04T07:18:44.967Z,4.43
2018-05-04T07:21:13.255Z,3.53
2018-05-04T07:23:41.557Z,2.73
2018-05-04T07:26:11.366Z,3.93
2018-05-04T07:28:39.716Z,4.17
2018-05-04T07:31:08.707Z,4.00
2018-05-04T07:33:36.984Z,3.40
2018-05-04T07:36:05.309Z,3.70
2018-05-04T07:38:33.582Z,3.70
2018-05-04T07:41:02.651Z,2.97
2018-05-04T07:43:30.976Z,3.53
2018-05-04T07:45:59.261Z,4.27
2018-05-04T07:48:27.560Z,4.70
2018-05-04T07:50:55.852Z,3.67
2018-05-04T07:53:25.655Z,3.67
2018-05-04T07:55:53.999Z,3.33
2018-05-04T07:58:22.287Z,2.87
2018-05-04T08:00:50.584Z,2.70
2018-05-04T08:03:18.863Z,4.27
2018-05-04T08:05:47.138Z,3.43
2018-05-04T08:08:15.394Z,2.97
2018-05-04T08:10:43.687Z,3.77
2018-05-04T08:13:11.967Z,4.20
2018-05-04T08:15:40.241Z,3.63
2018-05-04T08:18:08.535Z,3.53
2018-05-04T08:20:36.873Z,2.90
2018-05-04T08:23:05.197Z,3.93
2018-05-04T08:25:33.452Z,4.33
2018-05-04T08:28:01.789Z,4.47
2018-05-04T08:30:30.113Z,4.90
2018-05-04T08:32:58.401Z,4.90
2018-05-04T08:35:26.827Z,5.00
2018-05-04T08:37:55.865Z,5.40
2018-05-04T08:40:24.164Z,5.57
2018-05-04T08:42:52.444Z,4.20
2018-05-04T08:45:20.776Z,4.00
2018-05-04T08:47:49.060Z,4.27
2018-05-04T08:50:17.349Z,3.83
2018-05-04T08:52:45.635Z,5.20
2018-05-04T08:55:13.921Z,4.20
2018-05-04T08:57:42.196Z,3.30
2018-05-04T09:00:10.479Z,3.90
2018-05-04T09:02:38.764Z,3.60
2018-05-04T09:05:07.826Z,4.80
2018-05-04T09:07:36.084Z,5.80
2018-05-04T09:10:04.391Z,4.43
2018-05-04T09:12:32.719Z,6.80
2018-05-04T09:15:01.045Z,4.13
2018-05-04T09:17:29.326Z,4.10
2018-05-04T09:19:58.384Z,5.63
2018-05-04T09:22:26.676Z,3.40
2018-05-04T09:24:54.961Z,5.10
2018-05-04T09:27:23.244Z,4.07
2018-05-04T09:29:51.618Z,3.57
2018-05-04T09:32:19.915Z,3.80
2018-05-04T09:34:48.964Z,4.20
2018-05-04T09:37:17.272Z,4.67
2018-05-04T09:39:45.540Z,5.23
2018-05-04T09:42:15.332Z,4.50
2018-05-04T09:44:43.608Z,4.50
2018-05-04T09:47:11.863Z,5.67
2018-05-04T09:49:40.144Z,4.00
2018-05-04T09:52:08.415Z,4.50
2018-05-04T09:54:36.764Z,4.20
2018-05-04T09:57:05.047Z,4.07
2018-05-04T09:59:33.331Z,4.83
2018-05-04T10:02:01.598Z,4.10
2018-05-04T10:04:29.933Z,3.43
2018-05-04T10:06:58.243Z,4.43
2018-05-04T10:09:27.279Z,4.97
2018-05-04T10:11:55.583Z,3.00
2018-05-04T10:14:23.856Z,4.60
2018-05-04T10:16:52.135Z,4.27
2018-05-04T10:19:20.427Z,4.43
2018-05-04T10:21:48.785Z,4.80
2018-05-04T10:24:17.175Z,3.70
2018-05-04T10:26:45.473Z,3.90
2018-05-04T10:29:13.775Z,4.40
2018-05-04T10:31:42.128Z,4.57
2018-05-04T10:34:11.191Z,5.00
2018-05-04T10:36:40.277Z,5.53
2018-05-04T10:39:08.593Z,5.70
2018-05-04T10:41:37.640Z,4.53
2018-05-04T10:44:05.935Z,5.07
2018-05-04T10:46:34.316Z,4.60
2018-05-04T10:49:02.631Z,4.63
2018-05-04T10:51:31.712Z,4.40
2018-05-04T10:54:00.019Z,4.77
2018-05-04T10:56:28.310Z,4.30
2018-05-04T10:58:56.587Z,4.90
2018-05-04T11:01:24.884Z,4.30
2018-05-04T11:03:53.271Z,4.23
2018-05-04T11:06:21.573Z,4.20
2018-05-04T11:08:49.852Z,4.80
2018-05-04T11:11:18.929Z,5.77
2018-05-04T11:13:47.301Z,4.20
2018-05-04T11:16:15.543Z,3.73
2018-05-04T11:18:43.844Z,4.53
2018-05-04T11:21:12.149Z,4.67
2018-05-04T11:23:40.427Z,4.03
2018-05-04T11:26:09.480Z,4.17
2018-05-04T11:28:37.897Z,3.63
2018-05-04T11:31:06.239Z,4.10
2018-05-04T11:33:34.493Z,3.63
2018-05-04T11:36:02.766Z,4.07
2018-05-04T11:38:31.063Z,3.57
2018-05-04T11:40:59.433Z,4.07
2018-05-04T11:43:27.711Z,4.77
2018-05-04T11:45:56.020Z,4.80
2018-05-04T11:48:25.104Z,4.93
2018-05-04T11:50:53.389Z,4.20
2018-05-04T11:53:21.691Z,4.70
2018-05-04T11:55:50.719Z,4.67
2018-05-04T11:58:18.996Z,4.13
2018-05-04T12:00:47.779Z,5.50
2018-05-04T12:03:16.056Z,4.90
2018-05-04T12:05:44.355Z,4.73
2018-05-04T12:08:12.645Z,4.80
2018-05-04T12:10:42.489Z,4.50
2018-05-04T12:13:10.732Z,4.40
2018-05-04T12:15:39.026Z,4.77
2018-05-04T12:18:07.401Z,4.57
2018-05-04T12:20:35.712Z,4.53
2018-05-04T12:23:03.979Z,4.40
2018-05-04T12:25:32.256Z,4.57
2018-05-04T12:28:00.552Z,5.33
2018-05-04T12:30:28.949Z,4.33
2018-05-04T12:32:57.239Z,4.47
2018-05-04T12:35:25.829Z,5.00
2018-05-04T12:37:54.232Z,4.67
2018-05-04T12:40:22.503Z,4.43
2018-05-04T12:42:50.755Z,4.70
2018-05-04T12:45:19.055Z,4.30
2018-05-04T12:47:47.439Z,5.30
2018-05-04T12:50:15.730Z,4.70
2018-05-04T12:52:44.776Z,4.70
2018-05-04T12:55:13.289Z,4.00
2018-05-04T12:57:41.548Z,4.90
2018-05-04T13:00:09.912Z,4.80
2018-05-04T13:02:38.180Z,4.43
2018-05-04T13:05:06.455Z,4.43
2018-05-04T13:07:34.707Z,4.50
2018-05-04T13:10:03.024Z,5.53
2018-05-04T13:12:31.323Z,4.60
2018-05-04T13:15:00.382Z,4.70
2018-05-04T13:17:28.737Z,4.27
2018-05-04T13:19:56.972Z,4.40
2018-05-04T13:22:26.063Z,3.87
2018-05-04T13:24:54.367Z,3.97
2018-05-04T13:27:23.587Z,3.70
2018-05-04T13:29:51.836Z,4.27
2018-05-04T13:32:20.136Z,4.23
2018-05-04T13:34:48.428Z,4.40
2018-05-04T13:37:17.107Z,4.10
2018-05-04T13:39:45.389Z,4.03
2018-05-04T13:42:13.715Z,3.77
2018-05-04T13:44:42.039Z,4.20
2018-05-04T13:47:10.260Z,3.70
2018-05-04T13:49:38.570Z,4.03
2018-05-04T13:52:06.855Z,4.20
2018-05-04T13:54:35.150Z,3.90
2018-05-04T13:57:03.447Z,4.13
2018-05-04T13:59:31.827Z,3.80
2018-05-04T14:02:00.124Z,4.00
2018-05-04T14:04:29.187Z,4.00
2018-05-04T14:06:57.503Z,4.50
2018-05-04T14:09:25.799Z,3.00
2018-05-04T14:11:54.132Z,3.03
2018-05-04T14:14:22.420Z,4.33
2018-05-04T14:16:51.466Z,4.47
2018-05-04T14:19:19.795Z,3.97
2018-05-04T14:21:48.147Z,4.63
2018-05-04T14:24:16.456Z,4.60
2018-05-04T14:26:46.287Z,3.17
2018-05-04T14:29:14.602Z,4.90
2018-05-04T14:31:42.887Z,4.73
2018-05-04T14:34:11.167Z,5.23
2018-05-04T14:36:39.546Z,3.70
2018-05-04T14:39:07.853Z,4.47
2018-05-04T14:41:36.893Z,4.07
2018-05-04T14:44:05.187Z,3.57
2018-05-04T14:46:33.504Z,3.93
2018-05-04T14:49:01.804Z,4.07
2018-05-04T14:51:30.112Z,6.07
2018-05-04T14:53:58.471Z,3.97
2018-05-04T14:56:26.736Z,4.00
2018-05-04T14:58:55.060Z,4.17
2018-05-04T15:01:23.373Z,4.13
2018-05-04T15:03:52.422Z,3.77
2018-05-04T15:06:20.673Z,3.90
2018-05-04T15:08:48.969Z,4.57
2018-05-04T15:11:17.222Z,3.93
2018-05-04T15:13:45.539Z,3.40
2018-05-04T15:16:13.846Z,4.40
2018-05-04T15:18:42.881Z,3.63
2018-05-04T15:21:11.179Z,4.10
2018-05-04T15:23:39.485Z,4.67
2018-05-04T15:26:08.565Z,4.50
2018-05-04T15:28:37.599Z,4.20
2018-05-04T15:31:06.643Z,4.60
2018-05-04T15:33:34.936Z,5.10
2018-05-04T15:36:04.056Z,4.87
2018-05-04T15:38:32.344Z,5.50
2018-05-04T15:41:00.630Z,5.67
2018-05-04T15:43:28.975Z,5.00
2018-05-04T15:45:58.463Z,4.67
2018-05-04T15:48:32.311Z,4.30
2018-05-04T15:51:06.224Z,5.70
2018-05-04T15:53:34.538Z,5.53
2018-05-04T15:56:02.839Z,4.40
2018-05-04T15:58:31.199Z,5.90
2018-05-04T16:00:59.523Z,5.53
2018-05-04T16:03:27.965Z,6.63
2018-05-04T16:05:56.237Z,7.10
2018-05-04T16:08:24.554Z,5.40
2018-05-04T16:10:52.817Z,5.30
2018-05-04T16:13:21.986Z,5.00
2018-05-04T16:15:50.573Z,4.77
2018-05-04T16:18:19.656Z,4.30
2018-05-04T16:20:48.056Z,5.53
2018-05-04T16:23:16.349Z,4.20
2018-05-04T16:25:44.803Z,4.23
2018-05-04T16:28:13.888Z,4.90
2018-05-04T16:30:42.272Z,3.93
2018-05-04T16:33:11.354Z,3.90
2018-05-04T16:35:39.648Z,4.47
2018-05-04T16:38:07.919Z,4.40
2018-05-04T16:40:36.397Z,5.60
2018-05-04T16:43:04.703Z,4.37
2018-05-04T16:45:33.064Z,5.97
2018-05-04T16:48:06.918Z,7.30
2018-05-04T16:50:35.249Z,8.27
2018-05-04T16:53:04.302Z,8.17
2018-05-04T16:55:32.600Z,6.73
2018-05-04T16:58:02.411Z,4.87
2018-05-04T17:00:30.700Z,5.17
2018-05-04T17:02:58.987Z,5.50
2018-05-04T17:05:27.270Z,5.27
2018-05-04T17:07:56.323Z,4.73
2018-05-04T17:10:24.689Z,5.37
2018-05-04T17:12:52.955Z,4.37
2018-05-04T17:15:21.261Z,5.67
2018-05-04T17:17:49.561Z,5.10
2018-05-04T17:20:18.655Z,5.67
2018-05-04T17:22:47.717Z,4.27
2018-05-04T17:25:16.014Z,4.20
2018-05-04T17:27:44.324Z,4.40
2018-05-04T17:30:12.603Z,4.20
2018-05-04T17:32:41.667Z,4.00
2018-05-04T17:35:09.943Z,3.10
2018-05-04T17:37:38.226Z,2.50
2018-05-04T17:40:06.505Z,2.97
2018-05-04T17:42:34.815Z,2.70
2018-05-04T17:45:03.115Z,2.13
2018-05-04T17:47:31.550Z,2.87
2018-05-04T17:49:59.817Z,2.50
2018-05-04T17:52:28.865Z,2.90
2018-05-04T17:54:57.208Z,2.37
2018-05-04T17:57:26.366Z,2.37
2018-05-04T17:59:54.660Z,2.50
2018-05-04T18:02:22.920Z,2.60
2018-05-04T18:04:51.183Z,3.00
2018-05-04T18:07:19.495Z,1.87
2018-05-04T18:09:48.583Z,2.10
2018-05-04T18:12:16.878Z,2.50
2018-05-04T18:14:45.202Z,2.47
2018-05-04T18:17:13.523Z,1.87
2018-05-04T18:19:42.608Z,2.07
2018-05-04T18:22:11.698Z,2.40
2018-05-04T18:24:40.786Z,2.50
2018-05-04T18:27:09.083Z,2.80
2018-05-04T18:29:37.352Z,3.30
2018-05-04T18:32:05.640Z,2.70
2018-05-04T18:34:34.756Z,3.30
2018-05-04T18:37:03.068Z,2.77
2018-05-04T18:39:31.335Z,3.20
2018-05-04T18:41:59.631Z,4.13
2018-05-04T18:44:27.908Z,4.20
2018-05-04T18:46:56.189Z,3.33
2018-05-04T18:49:25.992Z,4.50
2018-05-04T18:51:54.319Z,2.90
2018-05-04T18:54:22.736Z,2.67
2018-05-04T18:56:50.937Z,2.97
2018-05-04T18:59:19.227Z,3.10
2018-05-04T19:01:47.559Z,3.03
2018-05-04T19:04:15.835Z,2.87
2018-05-04T19:06:44.131Z,4.10
2018-05-04T19:09:12.526Z,3.10
2018-05-04T19:11:40.841Z,3.00
2018-05-04T19:14:09.874Z,2.53
2018-05-04T19:16:38.182Z,2.97
2018-05-04T19:19:06.473Z,2.63
2018-05-04T19:21:34.788Z,3.20
2018-05-04T19:24:03.083Z,1.80
2018-05-04T19:26:31.367Z,4.73
2018-05-04T19:28:59.663Z,2.20
2018-05-04T19:31:28.753Z,4.00
2018-05-04T19:36:31.663Z,3.03
2018-05-04T19:38:59.988Z,3.17
2018-05-04T19:41:28.272Z,3.43
2018-05-04T19:43:56.571Z,3.90
2018-05-04T19:46:24.864Z,2.70
2018-05-04T19:48:54.675Z,3.47
2018-05-04T19:51:23.716Z,3.00
2018-05-04T19:53:52.030Z,4.27
2018-05-04T19:56:20.299Z,4.40
2018-05-04T19:58:48.689Z,4.90
2018-05-04T20:01:16.916Z,5.73
2018-05-04T20:03:45.191Z,5.30
2018-05-04T20:06:13.492Z,4.37
2018-05-04T20:08:41.795Z,4.30
2018-05-04T20:11:10.057Z,3.50
2018-05-04T20:13:38.380Z,3.83
2018-05-04T20:16:06.699Z,3.70
2018-05-04T20:18:35.007Z,3.50
2018-05-04T20:21:04.085Z,3.50
2018-05-04T20:23:32.365Z,2.90
2018-05-04T20:26:00.735Z,3.20
2018-05-04T20:28:29.068Z,2.40
2018-05-04T20:30:57.466Z,2.90
2018-05-04T20:33:25.771Z,2.70
2018-05-04T20:35:54.039Z,3.70
2018-05-04T20:38:22.339Z,3.63
2018-05-04T20:40:50.591Z,2.63
2018-05-04T20:43:18.904Z,3.13
2018-05-04T20:45:47.201Z,3.13
2018-05-04T20:48:16.243Z,3.37
2018-05-04T20:50:44.563Z,3.20
2018-05-04T20:53:12.850Z,3.10
2018-05-04T20:55:41.179Z,3.20
2018-05-04T20:58:11.041Z,2.30
2018-05-04T21:00:39.307Z,2.43
2018-05-04T21:03:07.618Z,2.60
2018-05-04T21:05:35.955Z,2.73
2018-05-04T21:08:04.244Z,2.97
2018-05-04T21:10:32.544Z,3.13
2018-05-04T21:13:00.823Z,3.70
2018-05-04T21:15:29.163Z,3.50
2018-05-04T21:17:57.428Z,2.57
2018-05-04T21:20:25.684Z,4.33
2018-05-04T21:22:53.979Z,3.20
2018-05-04T21:25:22.371Z,3.53
2018-05-04T21:27:50.641Z,2.97
2018-05-04T21:30:18.926Z,3.30
2018-05-04T21:32:47.981Z,3.63
2018-05-04T21:35:16.276Z,2.60
2018-05-04T21:37:45.351Z,2.27
2018-05-04T21:40:13.663Z,2.63
2018-05-04T21:42:41.969Z,3.10
2018-05-04T21:45:10.253Z,2.37
2018-05-04T21:47:38.569Z,2.47
2018-05-04T21:50:06.839Z,2.33
2018-05-04T21:52:35.127Z,2.30
2018-05-04T21:55:03.412Z,1.90
2018-05-04T21:57:31.742Z,1.90
2018-05-04T22:00:00.052Z,2.27
2018-05-04T22:02:28.328Z,2.27
2018-05-04T22:04:56.634Z,2.17
2018-05-04T22:07:24.995Z,2.23
2018-05-04T22:09:54.065Z,2.50
2018-05-04T22:12:22.366Z,2.37
2018-05-04T22:14:50.649Z,2.20
2018-05-04T22:17:18.947Z,2.47
2018-05-04T22:19:47.290Z,2.30
2018-05-04T22:22:15.592Z,2.40
2018-05-04T22:24:44.652Z,2.13
2018-05-04T22:27:12.940Z,2.23
2018-05-04T22:29:41.233Z,2.40
2018-05-04T22:32:10.280Z,2.93
2018-05-04T22:34:38.551Z,2.20
2018-05-04T22:37:06.855Z,2.27
2018-05-04T22:39:35.169Z,2.70
2018-05-04T22:42:04.208Z,3.07
2018-05-04T22:44:32.531Z,2.97
2018-05-04T22:47:00.849Z,2.03
2018-05-04T22:49:29.160Z,2.33
2018-05-04T22:51:57.524Z,1.90
2018-05-04T22:54:25.786Z,2.20
2018-05-04T22:56:54.110Z,2.90
2018-05-04T22:59:22.415Z,2.80
2018-05-04T23:01:50.845Z,2.30
2018-05-04T23:04:19.599Z,2.87
2018-05-04T23:06:48.319Z,2.70
2018-05-04T23:09:16.619Z,2.57
2018-05-04T23:11:45.675Z,2.97
2018-05-04T23:14:13.992Z,2.40
2018-05-04T23:16:43.060Z,1.90
2018-05-04T23:19:11.340Z,2.23
2018-05-04T23:21:39.646Z,2.30
2018-05-04T23:24:07.954Z,2.20
2018-05-04T23:26:36.375Z,2.30
2018-05-04T23:29:04.671Z,2.40
2018-05-04T23:31:33.715Z,1.50
2018-05-04T23:34:02.020Z,2.40
2018-05-04T23:36:30.299Z,2.10
2018-05-04T23:38:58.596Z,2.13
2018-05-04T23:41:26.903Z,2.37
2018-05-04T23:43:55.193Z,3.23
2018-05-04T23:46:23.496Z,3.20
2018-05-04T23:48:51.820Z,2.20
2018-05-04T23:51:20.127Z,2.70
2018-05-04T23:53:48.399Z,2.60
2018-05-04T23:56:16.697Z,2.57
2018-05-04T23:58:44.991Z,2.80
